Terminal Aerodrome Forecast
Issued by NWS

Home | Current Version | Previous Version | Text Only | Print | Product List | Glossary On
Versions: 1 2 3 4 5 6 7 8 9 10 11 12 13 14 15 16 17
000
FTUS43 KAPX 101740
TAFPLN
TAF
KPLN 101740Z 1018/1118 26008KT 3SM -SHSN BKN016 OVC025
      TEMPO 1018/1022 1SM -SHSN OVC012
     FM110200 27004KT P6SM VCSH BKN025
     FM110600 VRB03KT 3SM -SHSN BKN022
     FM111200 VRB03KT P6SM OVC035
     FM111300 16004KT P6SM OVC030
     FM111500 13007KT 2SM -SN OVC022=

USA.gov is the U.S. government's official web portal to all federal, state and local government web resources and services.